Roan Mountain, TN

7:08 PM EST on January 30, 2015 (GMT -0500)
APRSWXNET Roan Mountain TN US | Change Station
CLOSE
Current Station
Personal Weather Station
Location: Roan Mountain, TN
Elevation: 3549 ft
Nearby Weather Stations

Elev 3549 ft 36.17 °N, 82.15 °W | Updated 36 minutes ago

Clear
Clear
24 °F
Feels Like 24 °F
N
1
Wind Variable Wind from NW
Gusts 12.0 mph

Today
High -- | Low -- °F
--% Chance of Precip.
Yesterday
High -- | Low -- °F
Precip. -- in
7:31 AM 5:52 PM
Waxing Gibbous, 86% visible
Pressure 30.31 in
Visibility 10.0 miles
Clouds Clear
Windchill 24 °F
Dew Point 16 °F
Humidity 70%
Rainfall 0.07 in
Snow Depth Not available.
UV 0 out of 12
Pollen .40 out of 12
Air Quality Not available.
Flu Activity Not available.
METAR K0A9 302355Z AUTO VRB05KT 10SM CLR M01/M11 A3031 RMK

More Conditions Fewer Conditions

Pressure 30.31 in
Visibility 10.0 miles
Clouds Clear
Windchill 24 °F
Dew Point 16 °F
Humidity 70%
Rainfall 0.07 in
Snow Depth Not available.
UV 0 out of 12
Pollen .40 out of 12
Air Quality Not available.
Flu Activity Not available.
METAR K0A9 302355Z AUTO VRB05KT 10SM CLR M01/M11 A3031 RMK

More Conditions Fewer Conditions

10-Day Weather Forecast

Almanac

Astronomy

Jan. 30, 2015 Rise Set
Actual Time
Civil Twilight
Nautical Twilight
Astronomical Twilight
Moon
Length of Visible Light
Length of Day
Tomorrow will be .
, % of the Moon is Illuminated

Today's Extremes

State Highs State Lows

Community

WunderPhotos

Upload Photos

1,791,939 photos uploaded!

WunderBlogs® & News

Nearby

Air Quality

  Air Quality AQ Index Pollutant
Not available.

Snow Depth

Station Depth Elevation

Earthquake Activity

City Distance Mag. Time & Date
Minimum magnitude displayed is 2.5.

Coastal Water Temperatures

Place Temperature

Nearby Weather Stations